Amagi Galaxy — V7VE9 — position and weather

sailwx.info

Track history (hours):
 
Tides and Currents Weather Stations Pressure Air Temp Water Temp Dewpoint Dewpoint Depression Visibility Wind Speed Wind Dir Waves Ship Positions

Amagi Galaxy

Last reported at 2016-Aug-26 10:33 UTC. Time now 2016-Aug-27 06:22 UTC.
Position N 01°16' E 103°44'.

Length 152 m; draft 6.5 m.

Type: Ship (hazmat cat A). MMSI: 538004105.

Date/timePositionNaut miles runAvg speedWind from/ knotsBaromVisibWave heightAir tempDewpointWater temp
2016-Aug-26 10:33N 01°16' E 103°44'2 1.8
2016-Aug-26 09:28N 01°18' E 103°45'0 0.0
2016-Aug-26 08:28N 01°18' E 103°45'0 0.0
2016-Aug-26 06:28N 01°18' E 103°45'0 0.0
2016-Aug-26 04:28N 01°18' E 103°45'0 0.0
2016-Aug-26 03:31N 01°18' E 103°45'0 0.0
2016-Aug-26 02:28N 01°18' E 103°45'0 0.0
2016-Aug-25 21:16N 01°18' E 103°45'0 0.0
2016-Aug-25 20:22N 01°18' E 103°45'0 0.0
2016-Aug-25 19:04N 01°18' E 103°45'0 0.0
2016-Aug-25 17:28N 01°18' E 103°45'0 0.0
2016-Aug-25 15:16N 01°18' E 103°45'0 0.0
2016-Aug-25 14:28N 01°18' E 103°45'0 0.0
2016-Aug-25 13:22N 01°18' E 103°45'0 0.0
2016-Aug-25 12:28N 01°18' E 103°45'0 0.0
2016-Aug-25 11:28N 01°18' E 103°45'2 2.2
2016-Aug-25 10:33N 01°16' E 103°46'6 1.4
2016-Aug-25 06:23N 01°12' E 103°41'0 0.1
2016-Aug-25 04:33N 01°12' E 103°41'3 2.7
2016-Aug-25 03:33N 01°10' E 103°42'5 5.4
2016-Aug-25 02:33N 01°10' E 103°47'1111.1
2016-Aug-25 01:33N 01°15' E 103°57'1211.5
2016-Aug-25 00:33N 01°17' E 104°09'  
Track history (hours):
 
Tides and Currents Weather Stations Pressure Air Temp Water Temp Dewpoint Dewpoint Depression Visibility Wind Speed Wind Dir Waves Ship Positions

Amagi Galaxy

Last reported at 2016-Aug-26 10:33 UTC. Time now 2016-Aug-27 06:22 UTC.
Position N 01°16' E 103°44'.

Length 152 m; draft 6.5 m.

Type: Ship (hazmat cat A). MMSI: 538004105.

Date/timePositionNaut miles runAvg speedWind from/ knotsBaromVisibWave heightAir tempDewpointWater temp
2016-Aug-26 10:33N 01°16' E 103°44'2 1.8
2016-Aug-26 09:28N 01°18' E 103°45'0 0.0
2016-Aug-26 08:28N 01°18' E 103°45'0 0.0
2016-Aug-26 06:28N 01°18' E 103°45'0 0.0
2016-Aug-26 04:28N 01°18' E 103°45'0 0.0
2016-Aug-26 03:31N 01°18' E 103°45'0 0.0
2016-Aug-26 02:28N 01°18' E 103°45'0 0.0
2016-Aug-25 21:16N 01°18' E 103°45'0 0.0
2016-Aug-25 20:22N 01°18' E 103°45'0 0.0
2016-Aug-25 19:04N 01°18' E 103°45'0 0.0
2016-Aug-25 17:28N 01°18' E 103°45'0 0.0
2016-Aug-25 15:16N 01°18' E 103°45'0 0.0
2016-Aug-25 14:28N 01°18' E 103°45'0 0.0
2016-Aug-25 13:22N 01°18' E 103°45'0 0.0
2016-Aug-25 12:28N 01°18' E 103°45'0 0.0
2016-Aug-25 11:28N 01°18' E 103°45'2 2.2
2016-Aug-25 10:33N 01°16' E 103°46'6 1.4
2016-Aug-25 06:23N 01°12' E 103°41'0 0.1
2016-Aug-25 04:33N 01°12' E 103°41'3 2.7
2016-Aug-25 03:33N 01°10' E 103°42'5 5.4
2016-Aug-25 02:33N 01°10' E 103°47'1111.1
2016-Aug-25 01:33N 01°15' E 103°57'1211.5
2016-Aug-25 00:33N 01°17' E 104°09'  

Dump ship's entire track history